Time;durP1;ratioP1;P1;durP2;ratioP2;P2;SDS_P1;SDS_P2;PMS_P1;PMS_P2;Temp;Humidity;BMP_temperature;BMP_pressure;BME280_temperature;BME280_humidity;BME280_pressure;Samples;Min_cycle;Max_cycle;Signal;HPM_P1;HPM_P2
2020/12/05 00:00:29;;;;;;;57.85;30.82;;;;;;;0.60;68.73;96418.05;1757622;80;21109;-52
2020/12/05 00:02:57;;;;;;;49.03;28.38;;;;;;;0.66;68.66;96406.81;1775323;80;21132;-52
2020/12/05 00:05:25;;;;;;;59.08;30.40;;;;;;;0.68;68.18;96403.31;1779014;80;21494;-52
2020/12/05 00:07:53;;;;;;;59.80;31.20;;;;;;;0.63;68.13;96400.53;1755569;80;21206;-53
2020/12/05 00:10:22;;;;;;;49.88;27.62;;;;;;;0.67;67.87;96400.80;1755243;81;21148;-53
2020/12/05 00:12:49;;;;;;;54.35;29.35;;;;;;;0.69;68.00;96407.97;1772956;80;21141;-52
2020/12/05 00:15:17;;;;;;;42.88;24.37;;;;;;;0.69;67.78;96408.81;1756501;81;21045;-52
2020/12/05 00:17:44;;;;;;;44.53;25.80;;;;;;;0.69;67.78;96408.81;1761274;80;21057;-52
2020/12/05 00:20:12;;;;;;;47.27;27.48;;;;;;;0.66;67.98;96400.44;1806026;79;22247;-50
2020/12/05 00:22:40;;;;;;;51.23;26.48;;;;;;;0.69;68.25;96402.86;1784258;80;21131;-50
2020/12/05 00:25:07;;;;;;;44.63;27.77;;;;;;;0.77;68.01;96411.54;1766937;80;21057;-52
2020/12/05 00:27:35;;;;;;;52.90;29.02;;;;;;;0.67;67.45;96420.78;1748070;80;21165;-51
2020/12/05 00:30:03;;;;;;;44.85;25.60;;;;;;;0.67;67.45;96420.78;1768055;80;21100;-51
2020/12/05 00:32:31;;;;;;;47.47;26.13;;;;;;;0.55;67.43;96422.03;1779570;80;21268;-52
2020/12/05 00:34:58;;;;;;;46.92;25.32;;;;;;;0.41;67.91;96424.23;1781336;80;21072;-52
2020/12/05 00:37:30;;;;;;;43.70;23.38;;;;;;;0.39;68.67;96426.44;1789753;79;21089;-53
2020/12/05 00:39:58;;;;;;;34.45;19.67;;;;;;;0.35;69.20;96430.36;1777733;80;21187;-53
2020/12/05 00:42:26;;;;;;;44.55;25.40;;;;;;;0.39;69.38;96424.70;1772489;80;21153;-53
2020/12/05 00:44:55;;;;;;;40.63;24.05;;;;;;;0.39;69.38;96424.70;1763896;80;21204;-53
2020/12/05 00:47:22;;;;;;;45.00;24.87;;;;;;;0.40;68.90;96432.77;1750892;80;21104;-52
2020/12/05 00:49:50;;;;;;;43.83;24.80;;;;;;;0.40;68.90;96437.88;1750473;82;21069;-52
2020/12/05 00:52:23;;;;;;;46.13;26.27;;;;;;;0.40;68.66;96437.88;1750612;82;21060;-53
2020/12/05 00:54:51;;;;;;;53.48;28.20;;;;;;;0.44;68.36;96435.59;1773619;80;21175;-53
2020/12/05 00:57:19;;;;;;;43.60;25.07;;;;;;;0.46;67.99;96433.84;1781679;80;21329;-53
2020/12/05 00:59:49;;;;;;;45.20;25.00;;;;;;;0.45;67.74;96436.00;1775161;79;21451;-53
2020/12/05 01:02:17;;;;;;;39.55;23.85;;;;;;;0.45;67.68;96424.96;1757232;80;21064;-53
2020/12/05 01:04:44;;;;;;;45.88;24.63;;;;;;;0.41;67.56;96419.13;1758378;80;21116;-53
2020/12/05 01:07:11;;;;;;;33.25;20.35;;;;;;;0.37;67.47;96431.59;1781354;80;21727;-53
2020/12/05 01:09:40;;;;;;;38.53;22.10;;;;;;;0.21;69.07;96433.78;1773982;79;21629;-53
2020/12/05 01:12:08;;;;;;;30.20;18.32;;;;;;;0.11;67.97;96433.70;1750747;80;21520;-53
2020/12/05 01:14:35;;;;;;;38.42;21.85;;;;;;;0.02;69.18;96432.70;1781290;80;21568;-53
2020/12/05 01:17:03;;;;;;;38.92;21.55;;;;;;;-0.03;68.35;96418.83;1765539;80;21120;-52
2020/12/05 01:19:30;;;;;;;40.65;21.15;;;;;;;-0.03;68.35;96418.83;1753125;80;21508;-52
2020/12/05 01:21:58;;;;;;;32.00;18.77;;;;;;;0.01;68.25;96426.77;1750718;80;21278;-52
2020/12/05 01:24:25;;;;;;;32.60;18.30;;;;;;;0.06;69.29;96420.25;1753718;80;21107;-53
2020/12/05 01:26:54;;;;;;;31.45;18.50;;;;;;;0.06;69.29;96420.25;1775418;80;21132;-52
2020/12/05 01:29:22;;;;;;;31.50;17.70;;;;;;;0.05;69.43;96427.50;1761982;80;21198;-52
2020/12/05 01:31:49;;;;;;;28.35;17.37;;;;;;;0.09;69.77;96427.81;1780353;80;21033;-52
2020/12/05 01:34:17;;;;;;;32.23;18.98;;;;;;;0.19;70.01;96430.45;1773325;80;21326;-51
2020/12/05 01:36:45;;;;;;;33.30;17.85;;;;;;;0.32;69.92;96437.28;1756000;80;21187;-51
2020/12/05 01:39:13;;;;;;;34.38;20.00;;;;;;;0.35;69.06;96449.95;1768170;80;21105;-51
2020/12/05 01:41:40;;;;;;;28.60;17.50;;;;;;;0.23;69.71;96430.77;1789832;80;21469;-52
2020/12/05 01:44:08;;;;;;;27.37;16.57;;;;;;;0.29;70.56;96425.44;1785844;80;21466;-52
2020/12/05 01:46:42;;;;;;;29.02;17.15;;;;;;;0.36;70.30;96426.94;1765678;80;22321;-51
2020/12/05 01:49:12;;;;;;;25.57;15.55;;;;;;;0.43;70.57;96413.94;1773166;80;21494;-51
2020/12/05 01:51:39;;;;;;;23.25;15.58;;;;;;;0.43;70.57;96413.94;1731669;80;21489;-52
2020/12/05 01:54:07;;;;;;;26.25;17.27;;;;;;;0.54;70.96;96424.22;1752738;81;21052;-53
2020/12/05 01:56:35;;;;;;;31.27;18.85;;;;;;;0.67;70.89;96422.06;1756101;80;21575;-52
2020/12/05 01:59:03;;;;;;;32.67;19.02;;;;;;;0.88;70.06;96417.11;1760946;80;21330;-52
2020/12/05 02:01:31;;;;;;;37.65;23.05;;;;;;;0.88;70.06;96417.11;1751257;80;21099;-52
2020/12/05 02:04:01;;;;;;;40.00;22.77;;;;;;;0.89;69.48;96418.80;1758872;81;21089;-52
2020/12/05 02:06:49;;;;;;;30.95;18.75;;;;;;;0.88;69.06;96415.39;1755919;81;21101;-51
2020/12/05 02:09:24;;;;;;;37.93;21.30;;;;;;;0.86;68.66;96409.50;1768944;80;21040;-51
2020/12/05 02:11:57;;;;;;;43.23;23.20;;;;;;;0.89;68.15;96408.12;1760259;80;21372;-52
2020/12/05 02:14:26;;;;;;;46.73;24.32;;;;;;;0.93;68.20;96420.34;1752812;80;21136;-52
2020/12/05 02:16:55;;;;;;;35.78;20.05;;;;;;;0.86;67.92;96423.55;1760006;80;21504;-51
2020/12/05 02:19:22;;;;;;;36.10;20.48;;;;;;;0.73;68.02;96417.20;1760757;80;21108;-51
2020/12/05 02:21:51;;;;;;;39.90;21.73;;;;;;;0.71;68.13;96418.53;1756057;80;21520;-53
2020/12/05 02:24:19;;;;;;;;;;;;;;;0.74;68.37;96421.44;1779142;80;21244;-52
2020/12/05 02:26:47;;;;;;;31.12;16.80;;;;;;;0.80;69.02;96419.10;1786982;79;20222;-52
2020/12/05 02:29:14;;;;;;;42.15;21.15;;;;;;;0.86;68.67;96421.00;1786812;80;21123;-52
2020/12/05 02:31:42;;;;;;;41.58;22.42;;;;;;;0.77;67.87;96416.20;1773370;80;21199;-52
2020/12/05 02:34:10;;;;;;;63.80;30.08;;;;;;;0.75;67.64;96423.08;1709156;80;21060;-51
2020/12/05 02:36:38;;;;;;;60.55;27.93;;;;;;;0.75;67.64;96423.08;1768725;80;21210;-52
2020/12/05 02:39:10;;;;;;;74.45;33.98;;;;;;;0.80;67.21;96430.14;1755990;80;21543;-52
2020/12/05 02:41:40;;;;;;;71.80;31.23;;;;;;;0.80;67.30;96428.04;1757160;80;21207;-52
2020/12/05 02:44:07;;;;;;;78.25;33.13;;;;;;;0.83;66.94;96433.05;1779180;80;21123;-52
2020/12/05 02:46:35;;;;;;;79.75;33.85;;;;;;;0.83;66.94;96433.05;1756609;80;21206;-52
2020/12/05 02:49:02;;;;;;;65.12;29.57;;;;;;;0.78;66.69;96425.98;1766019;80;21402;-52
2020/12/05 02:51:30;;;;;;;64.75;30.80;;;;;;;0.70;67.04;96427.52;1756318;80;21584;-52
2020/12/05 02:53:58;;;;;;;65.78;31.02;;;;;;;0.60;67.34;96416.78;1779727;80;21148;-51
2020/12/05 02:56:26;;;;;;;78.07;33.78;;;;;;;0.60;67.51;96424.89;1786987;80;21038;-51
2020/12/05 02:58:55;;;;;;;65.12;30.88;;;;;;;0.66;67.77;96417.03;1762864;80;21118;-51
2020/12/05 03:01:22;;;;;;;80.90;35.68;;;;;;;0.68;67.92;96417.35;1763401;80;21375;-52
2020/12/05 03:03:50;;;;;;;79.90;34.18;;;;;;;0.63;67.15;96424.80;1786945;80;21500;-52
2020/12/05 03:06:18;;;;;;;67.37;32.60;;;;;;;0.58;67.27;96417.28;1767549;79;21064;-51
2020/12/05 03:08:45;;;;;;;70.50;32.93;;;;;;;0.58;67.44;96422.39;1755817;81;21147;-52
2020/12/05 03:11:13;;;;;;;69.03;32.53;;;;;;;0.64;66.91;96424.74;1775778;80;21136;-52
2020/12/05 03:13:40;;;;;;;64.60;30.60;;;;;;;0.64;66.87;96436.66;1759792;80;21464;-51
2020/12/05 03:16:08;;;;;;;59.83;29.98;;;;;;;0.57;66.25;96434.75;1762383;80;21091;-51
2020/12/05 03:18:36;;;;;;;64.00;32.33;;;;;;;0.43;66.76;96440.33;1777521;79;21156;-51
2020/12/05 03:21:03;;;;;;;47.90;27.00;;;;;;;0.43;66.76;96440.33;1777467;79;21152;-51
2020/12/05 03:23:31;;;;;;;45.83;26.65;;;;;;;0.41;66.82;96447.20;1793841;79;21476;-52
2020/12/05 03:25:58;;;;;;;38.02;22.30;;;;;;;0.28;67.30;96448.04;1746540;81;21820;-51
2020/12/05 03:28:26;;;;;;;34.85;20.80;;;;;;;0.26;68.04;96448.95;1767912;79;21870;-52
2020/12/05 03:30:54;;;;;;;40.98;22.35;;;;;;;0.27;68.31;96449.36;1794796;79;21639;-52
2020/12/05 03:33:23;;;;;;;42.98;24.75;;;;;;;0.35;68.76;96447.40;1767167;81;21155;-52
2020/12/05 03:35:50;;;;;;;39.18;22.62;;;;;;;0.41;67.71;96450.18;1799165;79;21477;-51
2020/12/05 03:38:18;;;;;;;37.10;22.02;;;;;;;0.40;68.35;96444.70;1785649;79;21156;-52
2020/12/05 03:40:45;;;;;;;36.90;22.77;;;;;;;0.46;67.99;96445.76;1798168;79;21127;-52
2020/12/05 03:43:13;;;;;;;37.75;23.60;;;;;;;0.46;67.99;96445.76;1783900;78;21136;-52
2020/12/05 03:45:40;;;;;;;37.93;23.05;;;;;;;0.50;67.76;96449.44;1791382;79;21087;-52
2020/12/05 03:48:12;;;;;;;40.85;23.10;;;;;;;0.44;67.57;96455.19;1752297;80;21120;-52
2020/12/05 03:50:39;;;;;;;38.67;23.47;;;;;;;0.34;67.30;96465.69;1789351;80;21385;-51
2020/12/05 03:53:07;;;;;;;35.83;20.23;;;;;;;0.24;66.98;96471.14;1765347;80;21112;-51
2020/12/05 03:55:34;;;;;;;39.50;22.67;;;;;;;0.10;66.68;96475.39;1780315;80;21132;-50
2020/12/05 03:58:02;;;;;;;31.85;19.45;;;;;;;-0.15;67.33;96470.20;1760258;80;21195;-52
2020/12/05 04:00:29;;;;;;;36.33;21.75;;;;;;;-0.25;68.27;96468.36;1752178;80;21222;-52
2020/12/05 04:02:57;;;;;;;37.75;22.48;;;;;;;-0.25;68.30;96471.77;1780775;80;22416;-51
2020/12/05 04:05:24;;;;;;;33.28;20.37;;;;;;;-0.15;68.08;96472.75;1782480;80;21104;-51
2020/12/05 04:07:52;;;;;;;30.68;19.60;;;;;;;-0.16;68.68;96471.10;1782563;80;21131;-51
2020/12/05 04:10:19;;;;;;;33.65;19.95;;;;;;;-0.16;68.68;96471.10;1753051;80;21190;-51
2020/12/05 04:12:47;;;;;;;35.08;20.02;;;;;;;-0.09;69.09;96472.13;1758376;80;21032;-51
2020/12/05 04:15:15;;;;;;;33.00;19.85;;;;;;;-0.04;69.10;96483.47;1776744;80;22446;-51
2020/12/05 04:17:42;;;;;;;34.75;20.25;;;;;;;0.07;69.09;96477.61;1769899;80;21226;-51
2020/12/05 04:20:09;;;;;;;31.35;18.95;;;;;;;0.17;69.20;96476.88;1747819;82;21482;-51
2020/12/05 04:22:37;;;;;;;30.97;19.40;;;;;;;0.25;68.95;96477.48;1749849;80;21060;-52
2020/12/05 04:25:04;;;;;;;35.17;21.17;;;;;;;0.25;68.69;96488.14;1747901;82;21143;-51
2020/12/05 04:27:32;;;;;;;33.38;19.65;;;;;;;0.25;68.56;96486.86;1764604;80;21158;-51
2020/12/05 04:29:59;;;;;;;35.75;20.52;;;;;;;0.28;68.50;96479.08;1778546;80;21056;-52
2020/12/05 04:32:27;;;;;;;30.32;19.30;;;;;;;0.31;68.03;96484.09;1775081;80;21497;-52
2020/12/05 04:34:56;;;;;;;32.23;18.65;;;;;;;0.36;68.27;96483.09;1764757;80;21108;-52
2020/12/05 04:37:24;;;;;;;29.90;18.70;;;;;;;0.41;68.34;96484.64;1769273;80;21117;-52
2020/12/05 04:39:52;;;;;;;30.88;18.80;;;;;;;0.35;68.23;96487.78;1758850;80;21375;-52
2020/12/05 04:42:20;;;;;;;34.45;20.35;;;;;;;0.28;68.34;96496.95;1770059;79;21509;-52
2020/12/05 04:44:47;;;;;;;31.93;19.20;;;;;;;0.20;68.38;96498.91;1761110;80;21037;-52
2020/12/05 04:47:16;;;;;;;40.17;23.00;;;;;;;0.10;68.69;96491.55;1759849;80;21131;-52
2020/12/05 04:49:44;;;;;;;39.00;23.18;;;;;;;0.00;66.80;96497.81;1737491;80;21136;-52
2020/12/05 04:52:24;;;;;;;38.02;22.67;;;;;;;-0.11;67.03;96494.75;1757836;80;21174;-52
2020/12/05 04:54:55;;;;;;;35.35;21.23;;;;;;;-0.13;67.08;96504.14;1778386;80;21513;-52
2020/12/05 04:57:25;;;;;;;36.65;22.40;;;;;;;-0.12;67.09;96504.55;1750742;80;21136;-51
2020/12/05 04:59:54;;;;;;;33.25;20.60;;;;;;;-0.34;67.88;96497.52;1756124;80;21122;-51
2020/12/05 05:02:26;;;;;;;39.73;21.90;;;;;;;-0.45;69.10;96490.17;1772610;80;21163;-50
2020/12/05 05:04:54;;;;;;;36.33;19.98;;;;;;;-0.61;69.66;96494.88;1786937;80;21205;-51
2020/12/05 05:07:22;;;;;;;24.23;16.57;;;;;;;-0.62;70.52;96492.38;1786768;80;21072;-52
2020/12/05 05:10:01;;;;;;;33.08;20.80;;;;;;;-0.60;71.49;96496.53;1774357;80;21056;-50
2020/12/05 05:12:30;;;;;;;35.48;21.23;;;;;;;-0.56;71.39;96507.05;1761487;80;21614;-51
2020/12/05 05:14:58;;;;;;;33.25;21.12;;;;;;;-0.50;71.41;96506.48;1786201;79;21068;-50
2020/12/05 05:17:25;;;;;;;29.00;18.75;;;;;;;-0.37;71.39;96505.25;1787458;80;21280;-51
2020/12/05 05:19:52;;;;;;;22.65;13.78;;;;;;;-0.20;71.93;96500.52;1762574;80;21099;-51
2020/12/05 05:22:22;;;;;;;30.45;18.90;;;;;;;-0.05;72.29;96497.95;1749422;80;21525;-52
2020/12/05 05:25:03;;;;;;;23.55;14.43;;;;;;;0.05;71.28;96501.48;1761975;80;21095;-51
2020/12/05 05:27:30;;;;;;;39.92;18.55;;;;;;;0.04;72.05;96493.45;1767350;81;21108;-52
2020/12/05 05:30:11;;;;;;;31.97;18.55;;;;;;;0.08;71.92;96512.45;1775797;79;21410;-52
2020/12/05 05:32:44;;;;;;;27.75;16.07;;;;;;;0.10;71.22;96514.93;1768532;79;21071;-51
2020/12/05 05:35:15;;;;;;;26.30;16.87;;;;;;;0.13;71.41;96510.59;1765585;79;21080;-50
2020/12/05 05:37:43;;;;;;;28.05;16.87;;;;;;;0.23;71.55;96503.91;1754631;81;21657;-50
2020/12/05 05:40:12;;;;;;;32.20;17.95;;;;;;;0.34;70.29;96510.35;1790747;79;21057;-51
2020/12/05 05:42:41;;;;;;;37.50;20.82;;;;;;;;;;1786213;79;22289;-51
2020/12/05 05:45:25;;;;;;;37.30;21.85;;;;;;;0.34;69.10;96510.80;1771024;79;21076;-50
2020/12/05 05:48:02;;;;;;;42.58;22.73;;;;;;;0.26;68.65;96507.20;1797581;79;21647;-50
2020/12/05 05:50:35;;;;;;;43.75;24.45;;;;;;;0.22;68.63;96512.47;1786520;79;21049;-50
2020/12/05 05:53:09;;;;;;;54.00;27.98;;;;;;;0.25;68.99;96506.00;1778593;79;21610;-51
2020/12/05 05:55:49;;;;;;;51.70;25.45;;;;;;;0.25;69.42;96510.66;1769383;79;22160;-51
2020/12/05 05:58:22;;;;;;;47.62;24.70;;;;;;;0.30;69.72;96511.34;1765715;79;21488;-49
2020/12/05 06:00:51;;;;;;;48.50;25.23;;;;;;;0.39;70.04;96511.48;1738800;81;21099;-50
2020/12/05 06:03:24;;;;;;;43.25;23.25;;;;;;;0.64;69.94;96517.95;1775209;80;21491;-50
2020/12/05 06:05:57;;;;;;;35.38;19.62;;;;;;;0.64;69.94;96517.95;1753399;80;21581;-50
2020/12/05 06:08:29;;;;;;;37.20;21.17;;;;;;;0.81;69.94;96533.17;1768668;80;21364;-50
2020/12/05 06:11:02;;;;;;;37.03;21.12;;;;;;;0.95;69.71;96525.86;1756980;80;21082;-53
2020/12/05 06:13:31;;;;;;;34.18;19.57;;;;;;;1.08;69.41;96530.95;1759828;80;21464;-52
2020/12/05 06:16:00;;;;;;;36.88;20.48;;;;;;;1.23;69.10;96536.01;1753982;80;25900;-52
2020/12/05 06:18:28;;;;;;;;;;;;;;;1.51;68.73;96532.47;1762228;80;21032;-53
2020/12/05 06:20:55;;;;;;;28.23;16.30;;;;;;;1.82;67.96;96537.31;1768061;80;21687;-52
2020/12/05 06:23:39;;;;;;;26.17;15.68;;;;;;;2.17;67.48;96536.89;1762563;80;21163;-52
2020/12/05 06:26:08;;;;;;;27.60;14.45;;;;;;;2.55;66.72;96546.13;1762613;80;21495;-50
2020/12/05 06:28:39;;;;;;;;;;;;;;;3.02;65.85;96542.08;1756366;80;21464;-50
2020/12/05 06:31:06;;;;;;;28.77;17.05;;;;;;;3.60;64.60;96544.36;1762053;80;20207;-50
2020/12/05 06:33:42;;;;;;;38.55;21.07;;;;;;;4.20;62.48;96550.70;1770087;80;21206;-50
2020/12/05 06:36:33;;;;;;;56.73;28.30;;;;;;;4.72;60.77;96553.41;1797036;79;21073;-49
2020/12/05 06:39:10;;;;;;;57.88;31.60;;;;;;;5.38;58.52;96545.91;1737210;81;21101;-50
2020/12/05 06:41:41;;;;;;;64.75;31.50;;;;;;;6.08;56.29;96553.05;1749756;82;21060;-50
2020/12/05 06:44:16;;;;;;;74.03;37.17;;;;;;;6.72;54.56;96556.45;1749813;82;21476;-51
2020/12/05 06:47:02;;;;;;;75.78;39.75;;;;;;;7.32;52.71;96550.48;1755188;81;21580;-51
2020/12/05 06:49:41;;;;;;;76.12;40.75;;;;;;;7.90;50.68;96544.08;1786256;79;21512;-50
2020/12/05 06:52:31;;;;;;;67.10;39.03;;;;;;;8.35;48.99;96546.04;1753598;80;21060;-51
2020/12/05 06:55:05;;;;;;;69.03;39.75;;;;;;;8.75;47.44;96538.84;1748172;82;21084;-51
2020/12/05 06:57:34;;;;;;;74.32;44.45;;;;;;;9.14;46.52;96533.31;1767300;81;21731;-51
2020/12/05 07:00:24;;;;;;;95.95;67.55;;;;;;;9.60;45.39;96534.13;1770647;79;21190;-51
2020/12/05 07:03:01;;;;;;;85.72;59.15;;;;;;;9.94;44.22;96545.63;1796260;79;21156;-51
2020/12/05 07:05:42;;;;;;;87.72;60.70;;;;;;;10.48;43.34;96552.77;1793697;79;21120;-50
2020/12/05 07:08:35;;;;;;;71.65;47.98;;;;;;;11.02;41.86;96544.55;1798750;79;21068;-50
2020/12/05 07:11:15;;;;;;;60.50;40.65;;;;;;;11.14;40.64;96557.58;1777778;79;21148;-50
2020/12/05 07:13:46;;;;;;;57.27;36.42;;;;;;;11.10;40.39;96561.33;1764763;80;22159;-51
2020/12/05 07:16:26;;;;;;;51.02;36.28;;;;;;;11.21;40.14;96563.97;1790214;80;21539;-52
2020/12/05 07:18:56;;;;;;;43.45;30.62;;;;;;;11.42;39.85;96563.67;1754168;81;21133;-51
2020/12/05 07:21:26;;;;;;;45.15;28.55;;;;;;;11.70;39.08;96566.81;1772478;80;21178;-51
2020/12/05 07:23:54;;;;;;;45.60;30.40;;;;;;;11.92;38.64;96571.25;1766035;80;21563;-52
2020/12/05 07:26:22;;;;;;;44.50;28.77;;;;;;;12.00;38.37;96560.24;1765751;78;23614;-51
2020/12/05 07:28:52;;;;;;;52.50;35.20;;;;;;;12.24;38.40;96568.42;1756317;80;21198;-53
2020/12/05 07:31:21;;;;;;;56.00;38.00;;;;;;;12.75;37.80;96574.38;1757472;80;21068;-52
2020/12/05 07:33:49;;;;;;;60.85;39.42;;;;;;;13.44;36.83;96583.14;1758149;80;21104;-50
2020/12/05 07:38:54;;;;;;;76.97;44.70;;;;;;;14.52;35.00;96583.67;1889755;76;22351;-52
2020/12/05 07:41:22;;;;;;;77.08;47.55;;;;;;;14.73;34.46;96590.98;1851534;77;21089;-51
2020/12/05 07:43:57;;;;;;;61.77;40.00;;;;;;;14.94;33.95;96591.86;1782283;80;21359;-51
2020/12/05 07:46:25;;;;;;;57.03;36.40;;;;;;;15.11;33.57;96595.09;1752996;81;21501;-52
2020/12/05 07:48:52;;;;;;;53.45;35.68;;;;;;;15.32;33.56;96586.31;1737093;81;21068;-51
2020/12/05 07:51:20;;;;;;;48.08;32.15;;;;;;;15.81;33.14;96588.43;1761567;80;21132;-53
2020/12/05 07:53:49;;;;;;;40.35;29.87;;;;;;;16.37;32.18;96586.23;1741560;81;20952;-49
2020/12/05 07:56:19;;;;;;;41.85;30.12;;;;;;;16.73;31.67;96588.96;1729855;83;21384;-52
2020/12/05 07:58:54;;;;;;;40.50;28.45;;;;;;;17.20;30.95;96587.17;1766907;80;21589;-53
2020/12/05 08:01:52;;;;;;;39.75;28.00;;;;;;;17.61;30.46;96583.58;1753157;81;21477;-51
2020/12/05 08:04:40;;;;;;;37.28;26.17;;;;;;;18.11;30.01;96588.22;1746588;81;21096;-53
2020/12/05 08:07:45;;;;;;;35.58;25.92;;;;;;;18.58;29.41;96591.73;1755360;81;21141;-52
2020/12/05 08:10:17;;;;;;;43.63;29.70;;;;;;;18.94;28.99;96585.45;1755436;81;21353;-52
2020/12/05 08:12:53;;;;;;;48.15;32.42;;;;;;;19.40;28.54;96599.00;1751152;81;21067;-53
2020/12/05 08:15:21;;;;;;;50.28;33.63;;;;;;;19.75;28.31;96592.27;1736850;81;21130;-57
2020/12/05 08:17:49;;;;;;;44.10;30.52;;;;;;;20.09;27.79;96586.81;1759598;81;21132;-52
2020/12/05 08:20:16;;;;;;;52.07;33.03;;;;;;;20.29;27.53;96585.13;1756489;81;21189;-52
2020/12/05 08:22:46;;;;;;;46.25;33.50;;;;;;;20.38;27.56;96582.80;1751586;81;21360;-52
2020/12/05 08:25:13;;;;;;;50.83;34.00;;;;;;;20.45;27.45;96584.26;1779289;79;21062;-52
2020/12/05 08:27:41;;;;;;;45.67;34.33;;;;;;;20.52;27.20;96591.80;1813710;79;21065;-52
2020/12/05 08:30:09;;;;;;;47.80;34.67;;;;;;;20.61;27.31;96586.83;1784630;79;21121;-53
2020/12/05 08:32:36;;;;;;;45.65;34.60;;;;;;;;;;1786270;80;21212;-52
2020/12/05 08:35:09;;;;;;;39.27;32.35;;;;;;;21.10;26.54;96580.48;1749730;81;21387;-52
2020/12/05 08:37:43;;;;;;;50.03;30.72;;;;;;;21.30;26.18;96592.23;1795548;79;21624;-52
2020/12/05 08:40:17;;;;;;;63.73;38.73;;;;;;;21.48;25.89;96589.81;1788024;79;21114;-52
2020/12/05 08:42:47;;;;;;;75.55;45.83;;;;;;;21.67;25.77;96586.69;1788386;78;21037;-52
2020/12/05 08:45:18;;;;;;;67.80;42.98;;;;;;;21.80;25.71;96590.56;1788572;79;21070;-52
2020/12/05 08:47:48;;;;;;;66.77;42.88;;;;;;;22.00;25.54;96594.83;1797933;78;21481;-52
2020/12/05 08:50:35;;;;;;;50.23;34.13;;;;;;;22.16;25.21;96592.02;1799329;78;21083;-51
2020/12/05 08:53:03;;;;;;;52.45;35.38;;;;;;;22.36;24.96;96593.65;1812258;78;21582;-52
2020/12/05 08:55:31;;;;;;;46.93;33.83;;;;;;;22.53;24.82;96592.14;1773830;78;21192;-54
2020/12/05 08:58:01;;;;;;;39.80;28.62;;;;;;;22.60;24.50;96591.74;1747353;81;21171;-54
2020/12/05 09:00:31;;;;;;;36.70;28.42;;;;;;;22.71;24.32;96587.28;1755079;81;21394;-51
2020/12/05 09:02:59;;;;;;;42.93;29.45;;;;;;;22.88;24.18;96593.20;1779851;79;21592;-53
2020/12/05 09:05:26;;;;;;;39.27;28.30;;;;;;;22.88;24.14;96591.03;1796132;79;21164;-54
2020/12/05 09:08:00;;;;;;;37.53;27.42;;;;;;;22.98;24.09;96580.48;1792340;79;21105;-53
2020/12/05 09:10:29;;;;;;;40.35;30.17;;;;;;;23.11;23.89;96586.46;1788357;79;21114;-53
2020/12/05 09:13:06;;;;;;;37.85;27.87;;;;;;;23.12;23.82;96580.66;1798234;79;21416;-53
2020/12/05 09:15:35;;;;;;;34.92;26.50;;;;;;;23.17;24.08;96592.01;1791149;79;21562;-54
2020/12/05 09:18:03;;;;;;;38.90;26.60;;;;;;;23.43;23.98;96592.78;1788147;79;21137;-55
2020/12/05 09:20:32;;;;;;;32.38;24.87;;;;;;;23.67;23.59;96591.06;1770857;80;22567;-54
2020/12/05 09:23:01;;;;;;;41.00;28.20;;;;;;;23.78;23.52;96595.52;1765146;80;21140;-53
2020/12/05 09:25:38;;;;;;;38.48;27.52;;;;;;;23.83;23.60;96587.36;1771601;80;21176;-53
2020/12/05 09:28:14;;;;;;;41.73;27.87;;;;;;;24.01;23.51;96578.94;1766011;80;21100;-54
2020/12/05 09:30:42;;;;;;;33.88;26.17;;;;;;;24.24;23.34;96581.81;1771855;80;21176;-52
2020/12/05 09:33:16;;;;;;;35.30;25.90;;;;;;;24.25;23.13;96577.64;1789238;78;21134;-53
2020/12/05 09:35:45;;;;;;;38.25;25.77;;;;;;;24.27;23.23;96580.09;1785426;79;21120;-54
2020/12/05 09:38:13;;;;;;;33.10;24.32;;;;;;;24.41;23.20;96579.16;1806063;78;22261;-53
2020/12/05 09:40:40;;;;;;;29.07;22.60;;;;;;;24.60;23.20;96572.34;1808512;79;21180;-53
2020/12/05 09:43:08;;;;;;;29.02;21.25;;;;;;;24.82;23.05;96576.22;1798336;79;21600;-53
2020/12/05 09:45:35;;;;;;;34.05;21.17;;;;;;;24.94;23.00;96579.12;1767418;80;21600;-53
2020/12/05 09:48:03;;;;;;;23.65;17.65;;;;;;;24.96;23.07;96571.77;1793308;78;21105;-53
2020/12/05 09:50:31;;;;;;;17.10;13.22;;;;;;;25.06;22.90;96574.84;1762796;80;22251;-53
2020/12/05 09:53:00;;;;;;;13.53;9.90;;;;;;;25.10;22.66;96578.75;1768940;80;21551;-52
2020/12/05 09:55:28;;;;;;;11.73;10.10;;;;;;;24.86;22.28;96580.63;1765941;80;21142;-53
2020/12/05 09:57:56;;;;;;;13.85;10.00;;;;;;;23.65;22.83;96588.28;1766932;80;21059;-54
2020/12/05 10:00:24;;;;;;;11.35;9.78;;;;;;;21.30;25.12;96590.11;1764369;80;21116;-54
2020/12/05 10:02:54;;;;;;;12.40;9.33;;;;;;;19.43;27.75;96596.05;1781897;80;21139;-54
2020/12/05 10:05:22;;;;;;;16.25;9.80;;;;;;;17.82;30.06;96592.43;1798497;79;21078;-54
2020/12/05 10:07:49;;;;;;;11.45;10.03;;;;;;;16.96;31.84;96591.67;1781157;79;21094;-54
2020/12/05 10:10:19;;;;;;;11.80;9.80;;;;;;;16.35;32.76;96594.73;1785042;79;21588;-57
2020/12/05 10:12:46;;;;;;;13.00;9.93;;;;;;;15.93;33.50;96587.28;1784453;79;21171;-53
2020/12/05 10:15:14;;;;;;;14.05;10.98;;;;;;;15.43;35.14;96594.02;1791774;79;21429;-52
2020/12/05 10:17:43;;;;;;;13.80;11.08;;;;;;;14.83;36.52;96596.72;1784277;78;21487;-53
2020/12/05 10:20:11;;;;;;;14.18;11.22;;;;;;;14.42;37.47;96590.17;1789812;79;21181;-52
2020/12/05 10:22:38;;;;;;;14.98;11.97;;;;;;;14.47;37.78;96598.91;1760087;80;21156;-53
2020/12/05 10:25:08;;;;;;;16.70;13.05;;;;;;;14.67;37.46;96599.83;1791604;80;21465;-54
2020/12/05 10:27:35;;;;;;;17.10;12.73;;;;;;;14.75;37.52;96602.59;1792247;80;21773;-55
2020/12/05 10:30:03;;;;;;;16.80;12.40;;;;;;;14.59;37.88;96599.21;1787704;80;21593;-54
2020/12/05 10:32:30;;;;;;;18.57;12.93;;;;;;;14.42;38.48;96601.92;1766430;79;21557;-53
2020/12/05 10:34:58;;;;;;;19.60;13.03;;;;;;;14.54;38.33;96615.72;1792130;79;21575;-52
2020/12/05 10:37:26;;;;;;;16.90;13.38;;;;;;;14.55;38.29;96597.77;1794327;80;21683;-54
2020/12/05 10:39:53;;;;;;;18.15;14.65;;;;;;;14.46;38.74;96612.45;1794333;80;21526;-55
2020/12/05 10:42:21;;;;;;;31.00;14.10;;;;;;;14.95;38.11;96613.09;1784488;80;21235;-57
2020/12/05 10:44:50;;;;;;;31.97;15.95;;;;;;;15.33;37.11;96592.72;1785683;79;21077;-55
2020/12/05 10:47:19;;;;;;;23.15;13.75;;;;;;;14.97;38.42;96607.27;1793907;79;21175;-55
2020/12/05 10:49:47;;;;;;;21.17;13.00;;;;;;;15.16;38.16;96601.23;1769645;80;21164;-53
2020/12/05 10:52:14;;;;;;;38.53;14.45;;;;;;;15.12;38.24;96612.93;1759652;81;21192;-54
2020/12/05 10:54:42;;;;;;;17.05;12.78;;;;;;;14.83;38.73;96609.77;1770359;79;21505;-53
2020/12/05 10:57:09;;;;;;;19.02;12.85;;;;;;;14.69;39.31;96597.45;1756306;80;21203;-54
2020/12/05 10:59:37;;;;;;;19.87;13.48;;;;;;;14.68;39.55;96601.00;1787005;79;21715;-54
2020/12/05 11:02:04;;;;;;;17.05;12.60;;;;;;;14.23;40.25;96590.94;1781020;80;21497;-53
2020/12/05 11:04:31;;;;;;;17.00;12.07;;;;;;;13.59;41.50;96595.88;1758550;81;21826;-53
2020/12/05 11:06:59;;;;;;;27.10;12.90;;;;;;;13.37;42.54;96598.94;1758474;81;22012;-53
2020/12/05 11:09:29;;;;;;;16.23;12.00;;;;;;;13.06;43.29;96587.06;1766122;79;21532;-52
2020/12/05 11:11:56;;;;;;;17.87;12.33;;;;;;;12.77;44.24;96593.30;1795220;79;21136;-53
2020/12/05 11:14:24;;;;;;;26.87;13.65;;;;;;;12.48;45.53;96592.98;1789218;80;21070;-52
2020/12/05 11:16:51;;;;;;;16.87;12.53;;;;;;;12.15;46.91;96594.20;1760018;81;21355;-53
2020/12/05 11:19:19;;;;;;;51.13;14.73;;;;;;;11.94;47.47;96607.06;1760402;81;22060;-52
2020/12/05 11:21:48;;;;;;;18.70;11.88;;;;;;;11.68;47.97;96608.17;1781964;79;21049;-53
2020/12/05 11:24:17;;;;;;;25.20;13.22;;;;;;;11.36;49.56;96609.58;1790634;78;21175;-52
2020/12/05 11:26:47;;;;;;;16.62;11.00;;;;;;;11.05;50.60;96614.44;1761472;81;21491;-52
2020/12/05 11:29:14;;;;;;;16.35;11.50;;;;;;;10.71;52.70;96607.38;1793664;79;22346;-53
2020/12/05 11:31:42;;;;;;;26.25;12.47;;;;;;;10.36;53.80;96601.16;1747645;81;21086;-53
2020/12/05 11:34:09;;;;;;;19.50;12.58;;;;;;;10.08;54.47;96616.43;1793106;79;21157;-52
2020/12/05 11:36:44;;;;;;;21.25;12.53;;;;;;;9.93;55.86;96623.48;1786909;80;21176;-52
2020/12/05 11:39:11;;;;;;;19.95;12.18;;;;;;;9.76;56.18;96605.19;1786894;80;21140;-52